Minot International Airport
KMOT : now visible

Airfield :











YOU CAN JOIN US ON...

 
LOGIN :

Register | Disclaimer

   EN    FR    IT 

 









Legend :    VFR   Marginal VFR   IFR   Intensive IFR   Very Intensive IFR
Visi :
Ceiling :
>= 8 km
>= 3000ft
5 to 8 km
1000 to 3000 ft
1500m to 5 km
500 to 1000 ft
800 to 1500m
200 to 500 ft
< 800m
< 200 ft
Symbols :   Thunderstorms  Fog  Heavy snow  Heavy precipitations  Wind > 20 kt






- Airport Elevation : 1716 ft
- IATA code : MOT


KMOT - Minot International

CURRENT METAR :
  • 301054Z AUTO 24008KT 10SM CLR M26/M29 A3027 RMK AO2 SLP309 T12561294 $

EXPIRED METARs :
  • 300954Z AUTO 23007KT 10SM CLR M25/M29 A3029 RMK AO2 SLP315 T12501289
  • 300854Z AUTO 26011KT 10SM CLR M26/M29 A3029 RMK AO2 SLP315 T12561294 56007

TAF KMOT
Valid from the 30 at 06:00 until the 31 at 06:00 UTC


300537Z 3006/3106 27011KT P6SM FEW200
FM301200 23013KT P6SM SCT250
FM310100 27012KT P6SM BKN200
KZMP FIR / North America



MET'MAP, your aeronautical weather chart ! - Copyright ORBIFLY December 2007 - Disclaimer

ORBIFLY MET'MAP TEAM :

Programming & Development : Alexandra Zaïnal
Original concept : Baudouin d'Aumeries
Technical & hardware support : Manuel Goepfert
Assistance : Marc-Olivier Méhu




SOURCES & CREDITS :

   NOAA       Earth
Advisory